sensor_id;sensor_type;location;lat;lon;timestamp;pressure;altitude;pressure_sealevel;temperature;humidity
28456;BME280;15682;56.742;38.866;2023-03-26T00:00:06;98180.0;;;4.0;98.7
28456;BME280;15682;56.742;38.866;2023-03-26T00:02:05;98180.0;;;3.9;98.7
28456;BME280;15682;56.742;38.866;2023-03-26T00:04:06;98180.0;;;3.9;98.7
28456;BME280;15682;56.742;38.866;2023-03-26T00:06:07;98180.0;;;3.9;98.9
28456;BME280;15682;56.742;38.866;2023-03-26T00:08:06;98180.0;;;3.9;98.9
28456;BME280;15682;56.742;38.866;2023-03-26T00:10:06;98180.0;;;3.9;98.9
28456;BME280;15682;56.742;38.866;2023-03-26T00:12:05;98180.0;;;3.8;98.9
28456;BME280;15682;56.742;38.866;2023-03-26T00:14:05;98180.0;;;3.8;98.9
28456;BME280;15682;56.742;38.866;2023-03-26T00:16:05;98180.0;;;3.8;99.1
28456;BME280;15682;56.742;38.866;2023-03-26T00:18:05;98180.0;;;3.8;99.1
28456;BME280;15682;56.742;38.866;2023-03-26T00:20:06;98180.0;;;3.8;99.1
28456;BME280;15682;56.742;38.866;2023-03-26T00:22:05;98180.0;;;3.9;99.1
28456;BME280;15682;56.742;38.866;2023-03-26T00:24:08;98180.0;;;3.9;99.1
28456;BME280;15682;56.742;38.866;2023-03-26T00:26:05;98180.0;;;3.9;99.1
28456;BME280;15682;56.742;38.866;2023-03-26T00:28:05;98180.0;;;3.9;99.1
28456;BME280;15682;56.742;38.866;2023-03-26T00:30:06;98180.0;;;3.9;99.1
28456;BME280;15682;56.742;38.866;2023-03-26T00:32:05;98180.0;;;3.7;99.1
28456;BME280;15682;56.742;38.866;2023-03-26T00:34:05;98180.0;;;3.7;99.1
28456;BME280;15682;56.742;38.866;2023-03-26T00:36:08;98180.0;;;3.7;98.9
28456;BME280;15682;56.742;38.866;2023-03-26T00:38:05;98180.0;;;3.7;98.9
28456;BME280;15682;56.742;38.866;2023-03-26T00:40:06;98180.0;;;3.7;98.9
28456;BME280;15682;56.742;38.866;2023-03-26T00:42:05;98180.0;;;3.6;98.9
28456;BME280;15682;56.742;38.866;2023-03-26T00:44:05;98180.0;;;3.6;98.9
28456;BME280;15682;56.742;38.866;2023-03-26T00:46:05;98180.0;;;3.5;98.4
28456;BME280;15682;56.742;38.866;2023-03-26T00:48:05;98190.0;;;3.5;98.1
28456;BME280;15682;56.742;38.866;2023-03-26T00:50:07;98190.0;;;3.5;98.1
28456;BME280;15682;56.742;38.866;2023-03-26T00:52:05;98190.0;;;3.3;98.1
28456;BME280;15682;56.742;38.866;2023-03-26T00:54:05;98190.0;;;3.3;98.1
28456;BME280;15682;56.742;38.866;2023-03-26T00:56:06;98190.0;;;3.3;98.1
28456;BME280;15682;56.742;38.866;2023-03-26T00:58:05;98190.0;;;3.1;98.1
28456;BME280;15682;56.742;38.866;2023-03-26T01:00:08;98190.0;;;3.1;98.1
28456;BME280;15682;56.742;38.866;2023-03-26T01:02:06;98190.0;;;3.2;98.1
28456;BME280;15682;56.742;38.866;2023-03-26T01:04:22;98190.0;;;3.2;97.8
28456;BME280;15682;56.742;38.866;2023-03-26T01:06:07;98190.0;;;3.2;97.8
28456;BME280;15682;56.742;38.866;2023-03-26T01:08:13;98190.0;;;3.0;97.8
28456;BME280;15682;56.742;38.866;2023-03-26T01:10:06;98190.0;;;3.0;97.8
28456;BME280;15682;56.742;38.866;2023-03-26T01:12:08;98190.0;;;2.9;97.8
28456;BME280;15682;56.742;38.866;2023-03-26T01:14:09;98190.0;;;2.9;97.8
28456;BME280;15682;56.742;38.866;2023-03-26T01:16:09;98190.0;;;2.8;98.1
28456;BME280;15682;56.742;38.866;2023-03-26T01:18:05;98190.0;;;2.8;98.1
28456;BME280;15682;56.742;38.866;2023-03-26T01:20:12;98200.0;;;2.8;98.1
28456;BME280;15682;56.742;38.866;2023-03-26T01:22:07;98200.0;;;2.8;98.1
28456;BME280;15682;56.742;38.866;2023-03-26T01:24:07;98200.0;;;2.8;98.1
28456;BME280;15682;56.742;38.866;2023-03-26T01:26:12;98200.0;;;2.8;98.3
28456;BME280;15682;56.742;38.866;2023-03-26T01:28:06;98200.0;;;2.8;98.3
28456;BME280;15682;56.742;38.866;2023-03-26T01:30:10;98200.0;;;2.8;98.3
28456;BME280;15682;56.742;38.866;2023-03-26T01:32:15;98200.0;;;2.8;98.3
28456;BME280;15682;56.742;38.866;2023-03-26T01:34:09;98210.0;;;2.8;98.3
28456;BME280;15682;56.742;38.866;2023-03-26T01:36:09;98210.0;;;2.7;98.3
28456;BME280;15682;56.742;38.866;2023-03-26T01:38:16;98210.0;;;2.7;98.3
28456;BME280;15682;56.742;38.866;2023-03-26T01:40:11;98210.0;;;2.7;98.3
28456;BME280;15682;56.742;38.866;2023-03-26T01:42:08;98210.0;;;2.7;98.3
28456;BME280;15682;56.742;38.866;2023-03-26T01:44:09;98210.0;;;2.7;98.3
28456;BME280;15682;56.742;38.866;2023-03-26T01:46:07;98210.0;;;2.8;98.1
28456;BME280;15682;56.742;38.866;2023-03-26T01:48:06;98210.0;;;2.8;98.1
28456;BME280;15682;56.742;38.866;2023-03-26T01:50:06;98210.0;;;2.7;98.1
28456;BME280;15682;56.742;38.866;2023-03-26T01:52:11;98210.0;;;2.7;98.1
28456;BME280;15682;56.742;38.866;2023-03-26T01:54:09;98210.0;;;2.7;98.1
28456;BME280;15682;56.742;38.866;2023-03-26T01:56:11;98210.0;;;2.7;98.0
28456;BME280;15682;56.742;38.866;2023-03-26T01:58:11;98210.0;;;2.7;98.0
28456;BME280;15682;56.742;38.866;2023-03-26T02:00:12;98200.0;;;2.7;98.0
28456;BME280;15682;56.742;38.866;2023-03-26T02:02:10;98200.0;;;2.6;98.0
28456;BME280;15682;56.742;38.866;2023-03-26T02:04:09;98200.0;;;2.5;98.0
28456;BME280;15682;56.742;38.866;2023-03-26T02:06:09;98200.0;;;2.5;98.2
28456;BME280;15682;56.742;38.866;2023-03-26T02:08:10;98200.0;;;2.5;98.2
28456;BME280;15682;56.742;38.866;2023-03-26T02:10:09;98200.0;;;2.5;98.2
28456;BME280;15682;56.742;38.866;2023-03-26T02:12:06;98200.0;;;2.5;98.2
28456;BME280;15682;56.742;38.866;2023-03-26T02:14:06;98200.0;;;2.5;98.2
28456;BME280;15682;56.742;38.866;2023-03-26T02:16:08;98200.0;;;2.5;97.9
28456;BME280;15682;56.742;38.866;2023-03-26T02:18:06;98200.0;;;2.4;97.9
28456;BME280;15682;56.742;38.866;2023-03-26T02:20:06;98200.0;;;2.4;97.9
28456;BME280;15682;56.742;38.866;2023-03-26T02:22:05;98200.0;;;2.4;97.9
28456;BME280;15682;56.742;38.866;2023-03-26T02:24:06;98190.0;;;2.4;97.9
28456;BME280;15682;56.742;38.866;2023-03-26T02:26:07;98190.0;;;2.4;98.3
28456;BME280;15682;56.742;38.866;2023-03-26T02:28:05;98190.0;;;2.4;98.3
28456;BME280;15682;56.742;38.866;2023-03-26T02:30:09;98190.0;;;2.4;98.3
28456;BME280;15682;56.742;38.866;2023-03-26T02:32:06;98190.0;;;2.6;98.3
28456;BME280;15682;56.742;38.866;2023-03-26T02:34:05;98190.0;;;2.6;98.3
28456;BME280;15682;56.742;38.866;2023-03-26T02:36:06;98190.0;;;2.6;98.3
28456;BME280;15682;56.742;38.866;2023-03-26T02:38:05;98190.0;;;2.6;98.3
28456;BME280;15682;56.742;38.866;2023-03-26T02:40:06;98190.0;;;2.6;98.3
28456;BME280;15682;56.742;38.866;2023-03-26T02:42:05;98180.0;;;2.5;98.3
28456;BME280;15682;56.742;38.866;2023-03-26T02:44:05;98180.0;;;2.5;98.3
28456;BME280;15682;56.742;38.866;2023-03-26T02:46:05;98180.0;;;2.4;98.2
28456;BME280;15682;56.742;38.866;2023-03-26T02:48:05;98180.0;;;2.4;98.2
28456;BME280;15682;56.742;38.866;2023-03-26T02:50:05;98180.0;;;2.4;98.2
28456;BME280;15682;56.742;38.866;2023-03-26T02:52:05;98180.0;;;2.5;98.2
28456;BME280;15682;56.742;38.866;2023-03-26T02:54:05;98180.0;;;2.5;98.2
28456;BME280;15682;56.742;38.866;2023-03-26T02:56:05;98180.0;;;2.5;98.4
28456;BME280;15682;56.742;38.866;2023-03-26T02:58:05;98180.0;;;2.5;98.4
28456;BME280;15682;56.742;38.866;2023-03-26T03:00:06;98180.0;;;2.5;98.4
28456;BME280;15682;56.742;38.866;2023-03-26T03:02:05;98180.0;;;2.5;98.4
28456;BME280;15682;56.742;38.866;2023-03-26T03:04:05;98180.0;;;2.5;98.4
28456;BME280;15682;56.742;38.866;2023-03-26T03:06:05;98180.0;;;2.5;98.4
28456;BME280;15682;56.742;38.866;2023-03-26T03:08:05;98180.0;;;2.5;98.7
28456;BME280;15682;56.742;38.866;2023-03-26T03:10:06;98180.0;;;2.5;98.7
28456;BME280;15682;56.742;38.866;2023-03-26T03:12:05;98180.0;;;2.5;98.7
28456;BME280;15682;56.742;38.866;2023-03-26T03:14:05;98180.0;;;2.6;98.7
28456;BME280;15682;56.742;38.866;2023-03-26T03:16:05;98180.0;;;2.6;98.3
28456;BME280;15682;56.742;38.866;2023-03-26T03:18:05;98180.0;;;2.6;98.3
28456;BME280;15682;56.742;38.866;2023-03-26T03:20:06;98180.0;;;2.6;98.1
28456;BME280;15682;56.742;38.866;2023-03-26T03:22:04;98180.0;;;2.6;98.1
28456;BME280;15682;56.742;38.866;2023-03-26T03:24:05;98180.0;;;2.6;98.1
28456;BME280;15682;56.742;38.866;2023-03-26T03:26:10;98180.0;;;2.7;98.0
28456;BME280;15682;56.742;38.866;2023-03-26T03:28:04;98180.0;;;2.9;98.0
28456;BME280;15682;56.742;38.866;2023-03-26T03:30:06;98180.0;;;2.9;97.5
28456;BME280;15682;56.742;38.866;2023-03-26T03:32:04;98170.0;;;2.9;97.5
28456;BME280;15682;56.742;38.866;2023-03-26T03:34:04;98170.0;;;2.9;97.5
28456;BME280;15682;56.742;38.866;2023-03-26T03:36:05;98170.0;;;2.9;97.7
28456;BME280;15682;56.742;38.866;2023-03-26T03:38:04;98160.0;;;3.0;97.7
28456;BME280;15682;56.742;38.866;2023-03-26T03:40:05;98160.0;;;3.0;97.7
28456;BME280;15682;56.742;38.866;2023-03-26T03:42:04;98160.0;;;3.0;97.7
28456;BME280;15682;56.742;38.866;2023-03-26T03:44:04;98160.0;;;3.1;97.7
28456;BME280;15682;56.742;38.866;2023-03-26T03:46:04;98160.0;;;3.1;97.0
28456;BME280;15682;56.742;38.866;2023-03-26T03:48:05;98160.0;;;3.0;97.0
28456;BME280;15682;56.742;38.866;2023-03-26T03:50:06;98160.0;;;3.1;97.0
28456;BME280;15682;56.742;38.866;2023-03-26T03:52:04;98150.0;;;3.2;97.0
28456;BME280;15682;56.742;38.866;2023-03-26T03:54:04;98150.0;;;3.2;97.0
28456;BME280;15682;56.742;38.866;2023-03-26T03:56:05;98150.0;;;3.2;96.9
28456;BME280;15682;56.742;38.866;2023-03-26T03:58:04;98150.0;;;3.2;96.9
28456;BME280;15682;56.742;38.866;2023-03-26T04:00:05;98150.0;;;3.3;96.4
28456;BME280;15682;56.742;38.866;2023-03-26T04:02:04;98150.0;;;3.4;96.4
28456;BME280;15682;56.742;38.866;2023-03-26T04:04:04;98150.0;;;3.4;96.4
28456;BME280;15682;56.742;38.866;2023-03-26T04:06:05;98150.0;;;3.5;95.9
28456;BME280;15682;56.742;38.866;2023-03-26T04:08:05;98150.0;;;3.5;95.7
28456;BME280;15682;56.742;38.866;2023-03-26T04:10:07;98150.0;;;3.7;95.7
28456;BME280;15682;56.742;38.866;2023-03-26T04:12:05;98150.0;;;3.7;95.7
28456;BME280;15682;56.742;38.866;2023-03-26T04:14:04;98150.0;;;3.7;95.7
28456;BME280;15682;56.742;38.866;2023-03-26T04:16:04;98150.0;;;3.7;95.8
28456;BME280;15682;56.742;38.866;2023-03-26T04:18:05;98150.0;;;3.7;95.8
28456;BME280;15682;56.742;38.866;2023-03-26T04:20:05;98150.0;;;3.7;95.8
28456;BME280;15682;56.742;38.866;2023-03-26T04:22:05;98150.0;;;3.7;95.8
28456;BME280;15682;56.742;38.866;2023-03-26T04:24:05;98140.0;;;3.7;95.8
28456;BME280;15682;56.742;38.866;2023-03-26T04:26:06;98140.0;;;3.7;95.3
28456;BME280;15682;56.742;38.866;2023-03-26T04:28:06;98140.0;;;3.7;95.3
28456;BME280;15682;56.742;38.866;2023-03-26T04:30:06;98140.0;;;3.4;95.3
28456;BME280;15682;56.742;38.866;2023-03-26T04:32:05;98130.0;;;3.5;95.3
28456;BME280;15682;56.742;38.866;2023-03-26T04:34:07;98130.0;;;3.5;95.3
28456;BME280;15682;56.742;38.866;2023-03-26T04:36:05;98130.0;;;3.5;96.3
28456;BME280;15682;56.742;38.866;2023-03-26T04:38:04;98130.0;;;3.5;96.3
28456;BME280;15682;56.742;38.866;2023-03-26T04:40:07;98120.0;;;3.5;96.3
28456;BME280;15682;56.742;38.866;2023-03-26T04:42:04;98120.0;;;3.5;95.6
28456;BME280;15682;56.742;38.866;2023-03-26T04:44:05;98120.0;;;3.5;95.6
28456;BME280;15682;56.742;38.866;2023-03-26T04:46:05;98120.0;;;3.5;95.5
28456;BME280;15682;56.742;38.866;2023-03-26T04:48:05;98120.0;;;3.5;95.0
28456;BME280;15682;56.742;38.866;2023-03-26T04:50:06;98120.0;;;3.7;95.0
28456;BME280;15682;56.742;38.866;2023-03-26T04:52:05;98120.0;;;3.7;94.5
28456;BME280;15682;56.742;38.866;2023-03-26T04:54:05;98120.0;;;3.8;94.5
28456;BME280;15682;56.742;38.866;2023-03-26T04:56:10;98120.0;;;4.0;93.9
28456;BME280;15682;56.742;38.866;2023-03-26T04:58:05;98120.0;;;4.0;93.9
28456;BME280;15682;56.742;38.866;2023-03-26T05:00:06;98120.0;;;4.2;93.1
28456;BME280;15682;56.742;38.866;2023-03-26T05:02:05;98110.0;;;4.1;93.1
28456;BME280;15682;56.742;38.866;2023-03-26T05:04:05;98110.0;;;4.3;92.4
28456;BME280;15682;56.742;38.866;2023-03-26T05:06:05;98110.0;;;4.4;92.5
28456;BME280;15682;56.742;38.866;2023-03-26T05:08:05;98110.0;;;4.5;91.8
28456;BME280;15682;56.742;38.866;2023-03-26T05:10:06;98110.0;;;4.6;91.3
28456;BME280;15682;56.742;38.866;2023-03-26T05:12:05;98110.0;;;4.7;91.5
28456;BME280;15682;56.742;38.866;2023-03-26T05:14:06;98110.0;;;4.7;91.5
28456;BME280;15682;56.742;38.866;2023-03-26T05:16:05;98110.0;;;4.8;91.6
28456;BME280;15682;56.742;38.866;2023-03-26T05:18:05;98110.0;;;4.7;92.1
28456;BME280;15682;56.742;38.866;2023-03-26T05:20:07;98110.0;;;4.9;92.1
28456;BME280;15682;56.742;38.866;2023-03-26T05:22:05;98100.0;;;4.9;92.1
28456;BME280;15682;56.742;38.866;2023-03-26T05:24:06;98100.0;;;4.9;92.1
28456;BME280;15682;56.742;38.866;2023-03-26T05:26:05;98100.0;;;4.9;91.5
28456;BME280;15682;56.742;38.866;2023-03-26T05:28:05;98090.0;;;4.9;91.5
28456;BME280;15682;56.742;38.866;2023-03-26T05:30:07;98090.0;;;5.1;91.5
28456;BME280;15682;56.742;38.866;2023-03-26T05:32:06;98090.0;;;5.1;91.5
28456;BME280;15682;56.742;38.866;2023-03-26T05:34:05;98090.0;;;5.1;91.5
28456;BME280;15682;56.742;38.866;2023-03-26T05:36:08;98090.0;;;5.0;91.2
28456;BME280;15682;56.742;38.866;2023-03-26T05:38:06;98090.0;;;5.0;91.2
28456;BME280;15682;56.742;38.866;2023-03-26T05:40:07;98090.0;;;5.0;92.0
28456;BME280;15682;56.742;38.866;2023-03-26T05:42:06;98090.0;;;4.9;92.0
28456;BME280;15682;56.742;38.866;2023-03-26T05:44:06;98090.0;;;5.2;92.0
28456;BME280;15682;56.742;38.866;2023-03-26T05:46:06;98090.0;;;5.2;91.7
28456;BME280;15682;56.742;38.866;2023-03-26T05:48:06;98090.0;;;5.3;91.4
28456;BME280;15682;56.742;38.866;2023-03-26T05:50:07;98090.0;;;5.5;90.8
28456;BME280;15682;56.742;38.866;2023-03-26T05:52:06;98090.0;;;5.4;90.8
28456;BME280;15682;56.742;38.866;2023-03-26T05:54:06;98090.0;;;5.4;90.8
28456;BME280;15682;56.742;38.866;2023-03-26T05:56:07;98090.0;;;5.4;91.1
28456;BME280;15682;56.742;38.866;2023-03-26T05:58:06;98090.0;;;5.4;91.5
28456;BME280;15682;56.742;38.866;2023-03-26T06:00:07;98090.0;;;5.4;91.5
28456;BME280;15682;56.742;38.866;2023-03-26T06:02:08;98080.0;;;5.4;91.5
28456;BME280;15682;56.742;38.866;2023-03-26T06:04:07;98080.0;;;5.4;91.5
28456;BME280;15682;56.742;38.866;2023-03-26T06:06:08;98080.0;;;5.2;92.2
28456;BME280;15682;56.742;38.866;2023-03-26T06:08:07;98080.0;;;5.2;92.2
28456;BME280;15682;56.742;38.866;2023-03-26T06:10:08;98080.0;;;5.2;92.2
28456;BME280;15682;56.742;38.866;2023-03-26T06:12:08;98080.0;;;5.2;92.2
28456;BME280;15682;56.742;38.866;2023-03-26T06:14:07;98080.0;;;5.2;92.9
28456;BME280;15682;56.742;38.866;2023-03-26T06:16:08;98080.0;;;5.2;92.9
28456;BME280;15682;56.742;38.866;2023-03-26T06:18:07;98080.0;;;5.2;92.9
28456;BME280;15682;56.742;38.866;2023-03-26T06:20:09;98080.0;;;5.2;92.9
28456;BME280;15682;56.742;38.866;2023-03-26T06:22:09;98080.0;;;5.3;92.9
28456;BME280;15682;56.742;38.866;2023-03-26T06:24:07;98080.0;;;5.3;92.9
28456;BME280;15682;56.742;38.866;2023-03-26T06:26:07;98070.0;;;5.3;92.8
28456;BME280;15682;56.742;38.866;2023-03-26T06:28:07;98070.0;;;5.5;92.8
28456;BME280;15682;56.742;38.866;2023-03-26T06:30:08;98070.0;;;5.5;92.8
28456;BME280;15682;56.742;38.866;2023-03-26T06:32:08;98070.0;;;5.4;92.8
28456;BME280;15682;56.742;38.866;2023-03-26T06:34:08;98070.0;;;5.4;92.8
28456;BME280;15682;56.742;38.866;2023-03-26T06:36:08;98060.0;;;5.4;93.0
28456;BME280;15682;56.742;38.866;2023-03-26T06:38:09;98060.0;;;5.6;93.0
28456;BME280;15682;56.742;38.866;2023-03-26T06:40:09;98060.0;;;5.6;92.4
28456;BME280;15682;56.742;38.866;2023-03-26T06:42:08;98060.0;;;5.7;92.4
28456;BME280;15682;56.742;38.866;2023-03-26T06:44:09;98060.0;;;5.7;92.4
28456;BME280;15682;56.742;38.866;2023-03-26T06:46:09;98060.0;;;5.8;92.2
28456;BME280;15682;56.742;38.866;2023-03-26T06:48:08;98060.0;;;5.9;92.2
28456;BME280;15682;56.742;38.866;2023-03-26T06:50:09;98060.0;;;5.9;91.9
28456;BME280;15682;56.742;38.866;2023-03-26T06:52:08;98060.0;;;6.1;91.9
28456;BME280;15682;56.742;38.866;2023-03-26T06:54:09;98060.0;;;6.1;91.9
28456;BME280;15682;56.742;38.866;2023-03-26T06:56:09;98050.0;;;6.1;91.2
28456;BME280;15682;56.742;38.866;2023-03-26T06:58:10;98060.0;;;6.2;91.2
28456;BME280;15682;56.742;38.866;2023-03-26T07:00:11;98060.0;;;6.2;90.6
28456;BME280;15682;56.742;38.866;2023-03-26T07:02:10;98060.0;;;6.2;91.2
28456;BME280;15682;56.742;38.866;2023-03-26T07:04:09;98050.0;;;6.4;91.2
28456;BME280;15682;56.742;38.866;2023-03-26T07:06:09;98050.0;;;6.4;91.0
28456;BME280;15682;56.742;38.866;2023-03-26T07:08:09;98040.0;;;6.4;91.0
28456;BME280;15682;56.742;38.866;2023-03-26T07:10:09;98050.0;;;6.4;91.0
28456;BME280;15682;56.742;38.866;2023-03-26T07:12:09;98050.0;;;6.3;91.0
28456;BME280;15682;56.742;38.866;2023-03-26T07:14:10;98040.0;;;6.3;91.0
28456;BME280;15682;56.742;38.866;2023-03-26T07:16:10;98040.0;;;6.3;91.1
28456;BME280;15682;56.742;38.866;2023-03-26T07:18:10;98040.0;;;6.3;91.1
28456;BME280;15682;56.742;38.866;2023-03-26T07:20:11;98030.0;;;6.3;91.1
28456;BME280;15682;56.742;38.866;2023-03-26T07:22:15;98030.0;;;6.4;91.8
28456;BME280;15682;56.742;38.866;2023-03-26T07:24:11;98030.0;;;6.2;91.8
28456;BME280;15682;56.742;38.866;2023-03-26T07:26:24;98030.0;;;6.2;91.7
28456;BME280;15682;56.742;38.866;2023-03-26T07:28:16;98030.0;;;6.4;91.7
28456;BME280;15682;56.742;38.866;2023-03-26T07:30:13;98030.0;;;6.4;91.7
28456;BME280;15682;56.742;38.866;2023-03-26T07:32:17;98030.0;;;6.4;91.7
28456;BME280;15682;56.742;38.866;2023-03-26T07:34:21;98030.0;;;6.4;91.7
28456;BME280;15682;56.742;38.866;2023-03-26T07:36:19;98020.0;;;6.5;91.8
28456;BME280;15682;56.742;38.866;2023-03-26T07:38:25;98020.0;;;6.5;91.8
28456;BME280;15682;56.742;38.866;2023-03-26T07:40:18;98020.0;;;6.6;91.8
28456;BME280;15682;56.742;38.866;2023-03-26T07:42:22;98020.0;;;6.6;91.0
28456;BME280;15682;56.742;38.866;2023-03-26T07:44:26;98020.0;;;6.6;91.4
28456;BME280;15682;56.742;38.866;2023-03-26T07:46:13;98020.0;;;6.8;91.4
28456;BME280;15682;56.742;38.866;2023-03-26T07:48:15;98010.0;;;7.0;91.4
28456;BME280;15682;56.742;38.866;2023-03-26T07:50:15;98010.0;;;7.0;90.3
28456;BME280;15682;56.742;38.866;2023-03-26T07:52:12;98010.0;;;7.0;90.3
28456;BME280;15682;56.742;38.866;2023-03-26T07:54:12;98000.0;;;7.1;90.3
28456;BME280;15682;56.742;38.866;2023-03-26T07:56:14;98000.0;;;7.1;89.7
28456;BME280;15682;56.742;38.866;2023-03-26T07:58:23;98000.0;;;7.1;89.7
28456;BME280;15682;56.742;38.866;2023-03-26T08:00:17;97990.0;;;7.1;89.7
28456;BME280;15682;56.742;38.866;2023-03-26T08:02:26;97990.0;;;7.2;89.2
28456;BME280;15682;56.742;38.866;2023-03-26T08:04:30;97990.0;;;7.2;89.1
28456;BME280;15682;56.742;38.866;2023-03-26T08:06:15;97990.0;;;7.3;89.1
28456;BME280;15682;56.742;38.866;2023-03-26T08:08:16;97990.0;;;7.3;89.1
28456;BME280;15682;56.742;38.866;2023-03-26T08:10:17;97990.0;;;7.3;88.7
28456;BME280;15682;56.742;38.866;2023-03-26T08:12:17;97990.0;;;7.3;88.7
28456;BME280;15682;56.742;38.866;2023-03-26T08:14:25;97990.0;;;7.3;88.9
28456;BME280;15682;56.742;38.866;2023-03-26T08:16:17;97990.0;;;7.3;88.9
28456;BME280;15682;56.742;38.866;2023-03-26T08:18:23;97990.0;;;7.3;88.9
28456;BME280;15682;56.742;38.866;2023-03-26T08:20:23;97990.0;;;7.3;88.9
28456;BME280;15682;56.742;38.866;2023-03-26T08:22:18;97990.0;;;7.4;88.9
28456;BME280;15682;56.742;38.866;2023-03-26T08:24:19;97990.0;;;7.4;88.9
28456;BME280;15682;56.742;38.866;2023-03-26T08:26:18;97990.0;;;7.5;88.6
28456;BME280;15682;56.742;38.866;2023-03-26T08:28:24;97990.0;;;7.4;88.6
28456;BME280;15682;56.742;38.866;2023-03-26T08:30:17;97990.0;;;7.4;88.6
28456;BME280;15682;56.742;38.866;2023-03-26T08:32:16;97990.0;;;7.3;89.2
28456;BME280;15682;56.742;38.866;2023-03-26T08:34:14;97990.0;;;7.3;89.2
28456;BME280;15682;56.742;38.866;2023-03-26T08:36:14;97990.0;;;7.3;88.9
28456;BME280;15682;56.742;38.866;2023-03-26T08:38:17;97990.0;;;7.4;88.9
28456;BME280;15682;56.742;38.866;2023-03-26T08:40:22;97990.0;;;7.6;88.6
28456;BME280;15682;56.742;38.866;2023-03-26T08:46:27;97980.0;;;7.6;89.0
28456;BME280;15682;56.742;38.866;2023-03-26T08:48:35;97980.0;;;7.6;89.0
28456;BME280;15682;56.742;38.866;2023-03-26T08:50:31;97980.0;;;7.7;89.0
28456;BME280;15682;56.742;38.866;2023-03-26T08:52:33;97980.0;;;7.6;89.2
28456;BME280;15682;56.742;38.866;2023-03-26T08:54:42;97980.0;;;7.5;89.1
28456;BME280;15682;56.742;38.866;2023-03-26T08:56:23;97980.0;;;7.4;90.0
28456;BME280;15682;56.742;38.866;2023-03-26T08:58:37;97970.0;;;7.3;90.0
28456;BME280;15682;56.742;38.866;2023-03-26T09:00:31;97970.0;;;7.4;90.0
28456;BME280;15682;56.742;38.866;2023-03-26T09:02:31;97960.0;;;7.4;90.0
28456;BME280;15682;56.742;38.866;2023-03-26T09:04:47;97960.0;;;7.4;90.6
28456;BME280;15682;56.742;38.866;2023-03-26T09:06:27;97960.0;;;7.4;91.2
28456;BME280;15682;56.742;38.866;2023-03-26T09:08:29;97960.0;;;7.2;92.0
28456;BME280;15682;56.742;38.866;2023-03-26T09:10:38;97960.0;;;7.2;92.0
28456;BME280;15682;56.742;38.866;2023-03-26T09:12:32;97960.0;;;7.3;92.0
28456;BME280;15682;56.742;38.866;2023-03-26T09:14:35;97960.0;;;7.3;92.5
28456;BME280;15682;56.742;38.866;2023-03-26T09:16:35;97960.0;;;7.3;92.6
28456;BME280;15682;56.742;38.866;2023-03-26T09:20:44;97960.0;;;7.1;92.6
28456;BME280;15682;56.742;38.866;2023-03-26T09:22:37;97960.0;;;6.9;93.4
28456;BME280;15682;56.742;38.866;2023-03-26T09:24:36;97960.0;;;6.9;93.4
28456;BME280;15682;56.742;38.866;2023-03-26T09:26:24;97960.0;;;7.1;93.4
28456;BME280;15682;56.742;38.866;2023-03-26T09:30:31;97950.0;;;6.9;94.1
28456;BME280;15682;56.742;38.866;2023-03-26T09:32:36;97950.0;;;6.9;94.6
28456;BME280;15682;56.742;38.866;2023-03-26T09:34:27;97950.0;;;7.0;94.7
28456;BME280;15682;56.742;38.866;2023-03-26T09:36:21;97950.0;;;6.9;94.7
28456;BME280;15682;56.742;38.866;2023-03-26T09:38:33;97940.0;;;6.9;94.7
28456;BME280;15682;56.742;38.866;2023-03-26T09:40:19;97940.0;;;7.0;94.7
28456;BME280;15682;56.742;38.866;2023-03-26T09:42:23;97940.0;;;6.8;94.7
28456;BME280;15682;56.742;38.866;2023-03-26T09:44:43;97930.0;;;6.9;95.3
28456;BME280;15682;56.742;38.866;2023-03-26T09:46:28;97930.0;;;6.9;94.8
28456;BME280;15682;56.742;38.866;2023-03-26T09:48:30;97930.0;;;6.9;94.8
28456;BME280;15682;56.742;38.866;2023-03-26T09:50:33;97930.0;;;6.9;94.8
28456;BME280;15682;56.742;38.866;2023-03-26T09:52:31;97920.0;;;6.8;94.8
28456;BME280;15682;56.742;38.866;2023-03-26T09:54:36;97920.0;;;6.7;94.9
28456;BME280;15682;56.742;38.866;2023-03-26T09:56:27;97920.0;;;6.7;95.3
28456;BME280;15682;56.742;38.866;2023-03-26T09:58:31;97910.0;;;6.6;95.3
28456;BME280;15682;56.742;38.866;2023-03-26T10:00:24;97910.0;;;6.6;95.3
28456;BME280;15682;56.742;38.866;2023-03-26T10:02:34;97910.0;;;6.6;96.0
28456;BME280;15682;56.742;38.866;2023-03-26T10:04:38;97910.0;;;6.6;96.2
28456;BME280;15682;56.742;38.866;2023-03-26T10:06:28;97910.0;;;6.7;96.2
28456;BME280;15682;56.742;38.866;2023-03-26T10:08:33;97910.0;;;6.9;96.2
28456;BME280;15682;56.742;38.866;2023-03-26T10:10:25;97900.0;;;6.7;96.2
28456;BME280;15682;56.742;38.866;2023-03-26T10:12:26;97900.0;;;6.9;96.2
28456;BME280;15682;56.742;38.866;2023-03-26T10:14:23;97900.0;;;6.9;95.9
28456;BME280;15682;56.742;38.866;2023-03-26T10:16:24;97900.0;;;6.9;95.9
28456;BME280;15682;56.742;38.866;2023-03-26T10:18:23;97890.0;;;7.0;95.9
28456;BME280;15682;56.742;38.866;2023-03-26T10:20:31;97890.0;;;7.0;95.9
28456;BME280;15682;56.742;38.866;2023-03-26T10:22:30;97880.0;;;7.0;95.3
28456;BME280;15682;56.742;38.866;2023-03-26T10:24:31;97880.0;;;6.8;96.0
28456;BME280;15682;56.742;38.866;2023-03-26T10:26:30;97880.0;;;6.8;96.0
28456;BME280;15682;56.742;38.866;2023-03-26T10:28:31;97880.0;;;7.0;96.0
28456;BME280;15682;56.742;38.866;2023-03-26T10:30:27;97880.0;;;6.9;96.0
28456;BME280;15682;56.742;38.866;2023-03-26T10:32:29;97870.0;;;6.9;96.0
28456;BME280;15682;56.742;38.866;2023-03-26T10:34:37;97870.0;;;7.0;95.7
28456;BME280;15682;56.742;38.866;2023-03-26T10:36:27;97870.0;;;6.9;95.7
28456;BME280;15682;56.742;38.866;2023-03-26T10:38:31;97860.0;;;6.9;95.7
28456;BME280;15682;56.742;38.866;2023-03-26T10:40:22;97860.0;;;6.9;95.7
28456;BME280;15682;56.742;38.866;2023-03-26T10:42:33;97850.0;;;6.8;95.7
28456;BME280;15682;56.742;38.866;2023-03-26T10:44:30;97850.0;;;6.8;96.1
28456;BME280;15682;56.742;38.866;2023-03-26T10:46:30;97850.0;;;6.8;96.1
28456;BME280;15682;56.742;38.866;2023-03-26T10:48:32;97850.0;;;6.8;96.1
28456;BME280;15682;56.742;38.866;2023-03-26T10:50:29;97850.0;;;6.8;96.1
28456;BME280;15682;56.742;38.866;2023-03-26T10:52:22;97850.0;;;6.8;96.1
28456;BME280;15682;56.742;38.866;2023-03-26T10:54:33;97850.0;;;6.8;96.5
28456;BME280;15682;56.742;38.866;2023-03-26T10:56:31;97840.0;;;6.8;96.5
28456;BME280;15682;56.742;38.866;2023-03-26T10:58:24;97840.0;;;6.8;96.5
28456;BME280;15682;56.742;38.866;2023-03-26T11:00:23;97840.0;;;6.8;96.5
28456;BME280;15682;56.742;38.866;2023-03-26T11:02:27;97840.0;;;6.7;96.5
28456;BME280;15682;56.742;38.866;2023-03-26T11:04:30;97840.0;;;6.6;96.9
28456;BME280;15682;56.742;38.866;2023-03-26T11:06:29;97830.0;;;6.6;97.2
28456;BME280;15682;56.742;38.866;2023-03-26T11:08:27;97830.0;;;6.6;97.2